createdAt,value
2022-12-19T00:01:53.132Z,101242.31
2022-12-19T00:04:22.222Z,101215.03
2022-12-19T00:06:49.865Z,101223.50
2022-12-19T00:09:17.515Z,101215.69
2022-12-19T00:11:45.139Z,101210.00
2022-12-19T00:14:12.968Z,101207.91
2022-12-19T00:16:40.725Z,101199.66
2022-12-19T00:19:08.516Z,101199.22
2022-12-19T00:21:38.616Z,101193.31
2022-12-19T00:24:21.509Z,101188.63
2022-12-19T00:26:49.763Z,101184.41
2022-12-19T00:29:17.484Z,101182.31
2022-12-19T00:31:45.463Z,101189.09
2022-12-19T00:34:13.292Z,101187.94
2022-12-19T00:36:42.339Z,101176.50
2022-12-19T00:39:11.616Z,101178.75
2022-12-19T00:41:42.047Z,101181.44
2022-12-19T00:44:19.154Z,101188.38
2022-12-19T00:46:51.511Z,101183.09
2022-12-19T00:49:20.609Z,101178.66
2022-12-19T00:51:49.665Z,101157.59
2022-12-19T00:54:17.299Z,101165.81
2022-12-19T00:56:45.438Z,101180.66
2022-12-19T00:59:13.080Z,101165.56
2022-12-19T01:01:42.266Z,101169.09
2022-12-19T01:04:30.366Z,101158.97
2022-12-19T01:07:01.973Z,101160.22
2022-12-19T01:09:29.971Z,101149.41
2022-12-19T01:12:15.458Z,101161.50
2022-12-19T01:14:43.099Z,101152.44
2022-12-19T01:17:10.712Z,101143.53
2022-12-19T01:19:43.679Z,101135.63
2022-12-19T01:22:13.678Z,101129.81
2022-12-19T01:24:41.822Z,101119.94
2022-12-19T01:27:09.854Z,101106.56
2022-12-19T01:29:47.260Z,101104.97
2022-12-19T01:32:20.351Z,101098.09
2022-12-19T01:34:48.021Z,101094.88
2022-12-19T01:37:18.505Z,101108.06
2022-12-19T01:39:46.294Z,101090.03
2022-12-19T01:42:16.157Z,101078.41
2022-12-19T01:45:20.165Z,101082.41
2022-12-19T01:47:53.708Z,101077.19
2022-12-19T01:50:25.366Z,101078.72
2022-12-19T01:52:55.162Z,101077.75
2022-12-19T01:55:22.840Z,101074.72
2022-12-19T01:57:50.525Z,101061.59
2022-12-19T02:00:18.254Z,101067.44
2022-12-19T02:02:47.999Z,101080.91
2022-12-19T02:05:15.698Z,101057.06
2022-12-19T02:07:44.447Z,101060.06
2022-12-19T02:10:13.486Z,101051.91
2022-12-19T02:12:43.020Z,101053.72
2022-12-19T02:15:12.094Z,101060.66
2022-12-19T02:17:43.972Z,101065.78
2022-12-19T02:20:52.785Z,101049.47
2022-12-19T02:23:47.565Z,101042.19
2022-12-19T02:26:44.541Z,101040.81
2022-12-19T02:29:28.851Z,101047.03
2022-12-19T02:32:01.577Z,101042.41
2022-12-19T02:34:32.918Z,101047.41
2022-12-19T02:37:03.186Z,101034.91
2022-12-19T02:39:35.690Z,101027.34
2022-12-19T02:42:05.433Z,101047.69
2022-12-19T02:44:35.260Z,101034.78
2022-12-19T02:47:05.727Z,101032.19
2022-12-19T02:49:34.474Z,101019.75
2022-12-19T02:52:10.967Z,101016.59
2022-12-19T02:54:42.228Z,101011.00
2022-12-19T02:57:17.903Z,101011.66
2022-12-19T02:59:53.600Z,101004.31
2022-12-19T03:02:28.607Z,100993.94
2022-12-19T03:05:00.527Z,101009.03
2022-12-19T03:07:31.583Z,101001.50
2022-12-19T03:10:05.266Z,101003.06
2022-12-19T03:12:37.700Z,100982.91
2022-12-19T03:15:06.141Z,101001.47
2022-12-19T03:17:37.768Z,101000.13
2022-12-19T03:20:09.901Z,100993.56
2022-12-19T03:22:37.601Z,100994.91
2022-12-19T03:25:05.876Z,100977.75
2022-12-19T03:27:35.672Z,100984.97
2022-12-19T03:30:06.730Z,100967.91
2022-12-19T03:32:34.767Z,100976.75
2022-12-19T03:35:05.880Z,100977.78
2022-12-19T03:37:35.959Z,100980.78
2022-12-19T03:40:06.497Z,100969.16
2022-12-19T03:42:53.144Z,100974.09
2022-12-19T03:45:27.133Z,100966.75
2022-12-19T03:47:58.460Z,100972.72
2022-12-19T03:50:32.642Z,100969.66
2022-12-19T03:53:06.135Z,100966.44
2022-12-19T03:55:39.642Z,100969.56
2022-12-19T03:58:09.165Z,100961.78
2022-12-19T04:00:39.235Z,100956.91
2022-12-19T04:03:08.285Z,100949.16
2022-12-19T04:05:39.951Z,100963.81
2022-12-19T04:08:09.347Z,100938.13
2022-12-19T04:10:41.965Z,100942.66
2022-12-19T04:13:13.147Z,100940.50
2022-12-19T04:15:45.431Z,100931.50
2022-12-19T04:18:13.717Z,100933.56
2022-12-19T04:20:45.203Z,100944.50
2022-12-19T04:23:16.922Z,100938.63
2022-12-19T04:25:47.514Z,100945.31
2022-12-19T04:28:18.611Z,100941.97
2022-12-19T04:30:47.666Z,100922.69
2022-12-19T04:33:15.373Z,100910.28
2022-12-19T04:35:44.432Z,100919.06
2022-12-19T04:38:12.082Z,100902.28
2022-12-19T04:40:41.691Z,100894.44
2022-12-19T04:43:09.736Z,100902.84
2022-12-19T04:45:37.808Z,100890.88
2022-12-19T04:48:05.842Z,100904.97
2022-12-19T04:50:36.404Z,100888.34
2022-12-19T04:53:05.915Z,100898.34
2022-12-19T04:55:33.712Z,100894.91
2022-12-19T04:58:02.588Z,100887.34
2022-12-19T05:00:30.212Z,100883.44
2022-12-19T05:02:58.167Z,100877.38
2022-12-19T05:05:26.081Z,100874.47
2022-12-19T05:07:54.027Z,100889.38
2022-12-19T05:10:23.090Z,100871.88
2022-12-19T05:12:50.772Z,100871.97
2022-12-19T05:15:18.633Z,100867.41
2022-12-19T05:17:46.364Z,100866.91
2022-12-19T05:20:14.473Z,100871.53
2022-12-19T05:22:42.114Z,100867.84
2022-12-19T05:25:10.449Z,100869.47
2022-12-19T05:27:39.473Z,100857.59
2022-12-19T05:30:08.295Z,100870.31
2022-12-19T05:32:35.941Z,100862.84
2022-12-19T05:35:03.630Z,100860.38
2022-12-19T05:37:31.348Z,100856.31
2022-12-19T05:39:59.070Z,100847.84
2022-12-19T05:42:27.223Z,100852.25
2022-12-19T05:44:56.228Z,100870.31
2022-12-19T05:47:23.929Z,100855.84
2022-12-19T05:49:51.593Z,100860.16
2022-12-19T05:52:19.284Z,100866.78
2022-12-19T05:54:47.019Z,100850.22
2022-12-19T05:57:14.699Z,100858.63
2022-12-19T05:59:42.413Z,100846.06
2022-12-19T06:02:11.574Z,100834.63
2022-12-19T06:04:39.398Z,100839.34
2022-12-19T06:07:07.164Z,100842.56
2022-12-19T06:09:34.899Z,100849.34
2022-12-19T06:12:02.577Z,100838.06
2022-12-19T06:14:30.312Z,100839.72
2022-12-19T06:16:58.479Z,100841.13
2022-12-19T06:19:27.936Z,100837.91
2022-12-19T06:21:55.597Z,100816.13
2022-12-19T06:24:25.352Z,100840.19
2022-12-19T06:26:53.028Z,100827.03
2022-12-19T06:29:21.040Z,100821.03
2022-12-19T06:31:48.825Z,100814.63
2022-12-19T06:34:39.457Z,100824.00
2022-12-19T06:37:08.288Z,100824.44
2022-12-19T06:39:36.491Z,100816.31
2022-12-19T06:42:21.986Z,100817.81
2022-12-19T06:44:49.767Z,100820.72
2022-12-19T06:47:17.516Z,100833.31
2022-12-19T06:49:49.595Z,100824.22
2022-12-19T06:52:18.843Z,100823.03
2022-12-19T06:54:46.525Z,100815.50
2022-12-19T06:57:14.169Z,100804.03
2022-12-19T06:59:42.279Z,100824.31
2022-12-19T07:02:21.236Z,100811.16
2022-12-19T07:04:51.441Z,100815.22
2022-12-19T07:07:20.577Z,100813.34
2022-12-19T07:09:49.125Z,100801.25
2022-12-19T07:12:16.770Z,100806.00
2022-12-19T07:14:47.728Z,100807.75
2022-12-19T07:17:18.589Z,100818.28
2022-12-19T07:19:46.335Z,100805.88
2022-12-19T07:22:13.986Z,100777.47
2022-12-19T07:24:43.039Z,100787.25
2022-12-19T07:27:10.769Z,100815.78
2022-12-19T07:29:38.452Z,100801.41
2022-12-19T07:32:06.365Z,100806.44
2022-12-19T07:34:34.133Z,100802.25
2022-12-19T07:37:01.791Z,100825.34
2022-12-19T07:39:29.471Z,100815.91
2022-12-19T07:41:58.576Z,100817.97
2022-12-19T07:44:26.318Z,100821.94
2022-12-19T07:46:54.012Z,100820.44
2022-12-19T07:49:22.958Z,100797.19
2022-12-19T07:51:50.892Z,100811.63
2022-12-19T07:54:18.606Z,100821.88
2022-12-19T07:56:46.338Z,100800.19
2022-12-19T07:59:15.483Z,100818.47
2022-12-19T08:01:43.286Z,100803.00
2022-12-19T08:04:11.081Z,100820.53
2022-12-19T08:06:41.446Z,100826.88
2022-12-19T08:09:09.680Z,100831.88
2022-12-19T08:11:37.373Z,100828.09
2022-12-19T08:14:05.037Z,100835.09
2022-12-19T08:16:49.420Z,100831.09
2022-12-19T08:19:27.164Z,100835.69
2022-12-19T08:21:55.278Z,100831.16
2022-12-19T08:24:22.911Z,100825.28
2022-12-19T08:26:50.565Z,100836.50
2022-12-19T08:29:18.280Z,100834.06
2022-12-19T08:31:47.331Z,100841.41
2022-12-19T08:34:15.013Z,100839.34
2022-12-19T08:36:42.728Z,100830.81
2022-12-19T08:39:11.178Z,100829.44
2022-12-19T08:41:38.896Z,100843.25
2022-12-19T08:44:07.142Z,100842.81
2022-12-19T08:46:34.931Z,100833.59
2022-12-19T08:49:03.966Z,100842.28
2022-12-19T08:51:31.688Z,100835.78
2022-12-19T08:53:59.945Z,100837.16
2022-12-19T08:56:28.923Z,100828.41
2022-12-19T08:58:56.987Z,100832.38
2022-12-19T09:01:25.907Z,100842.84
2022-12-19T09:05:19.996Z,100828.97
2022-12-19T09:06:42.661Z,100833.00
2022-12-19T09:09:10.423Z,100820.69
2022-12-19T09:11:47.525Z,100839.41
2022-12-19T09:14:21.171Z,100829.88
2022-12-19T09:16:49.500Z,100824.72
2022-12-19T09:19:18.083Z,100823.31
2022-12-19T09:21:47.163Z,100828.78
2022-12-19T09:24:14.871Z,100833.13
2022-12-19T09:26:44.050Z,100826.75
2022-12-19T09:29:20.357Z,100840.56
2022-12-19T09:31:55.677Z,100834.16
2022-12-19T09:34:25.639Z,100829.44
2022-12-19T09:37:08.341Z,100830.16
2022-12-19T09:39:36.700Z,100833.34
2022-12-19T09:42:18.050Z,100834.44
2022-12-19T09:45:02.027Z,100845.84
2022-12-19T09:47:31.891Z,100847.97
2022-12-19T09:50:00.918Z,100836.66
2022-12-19T09:52:33.964Z,100845.19
2022-12-19T09:55:04.977Z,100853.59
2022-12-19T09:57:40.271Z,100843.88
2022-12-19T10:00:11.874Z,100846.38
2022-12-19T10:02:42.799Z,100850.66
2022-12-19T10:05:37.980Z,100856.72
2022-12-19T10:08:17.047Z,100847.91
2022-12-19T10:12:38.769Z,100848.59
2022-12-19T10:13:57.397Z,100849.84
2022-12-19T10:16:31.767Z,100863.31
2022-12-19T10:19:02.089Z,100862.50
2022-12-19T10:22:07.738Z,100842.13
2022-12-19T10:24:46.511Z,100857.91
2022-12-19T10:27:39.119Z,100850.03
2022-12-19T10:30:25.470Z,100842.91
2022-12-19T10:33:02.869Z,100853.94
2022-12-19T10:35:34.884Z,100861.81
2022-12-19T10:38:14.948Z,100846.25
2022-12-19T10:40:47.286Z,100847.34
2022-12-19T10:43:30.748Z,100834.16
2022-12-19T10:46:06.379Z,100850.94
2022-12-19T10:48:34.148Z,100824.47
2022-12-19T10:51:06.533Z,100827.53
2022-12-19T10:53:34.837Z,100847.03
2022-12-19T10:56:13.525Z,100832.44
2022-12-19T10:58:44.193Z,100840.06
2022-12-19T11:01:14.439Z,100833.19
2022-12-19T11:03:44.092Z,100830.97
2022-12-19T11:06:47.297Z,100834.97
2022-12-19T11:09:21.546Z,100824.81
2022-12-19T11:15:34.109Z,100828.50
2022-12-19T11:19:23.920Z,100852.09
2022-12-19T11:26:07.891Z,100834.97
2022-12-19T11:27:03.851Z,100840.44
2022-12-19T11:29:30.008Z,100849.53
2022-12-19T11:29:35.024Z,100822.06
2022-12-19T11:30:36.287Z,100815.25
2022-12-19T11:34:35.557Z,100828.06
2022-12-19T11:37:18.752Z,100840.09
2022-12-19T11:39:49.435Z,100821.13
2022-12-19T11:42:22.626Z,100812.88
2022-12-19T11:44:56.434Z,100821.25
2022-12-19T11:47:33.751Z,100822.19
2022-12-19T11:50:04.828Z,100820.81
2022-12-19T11:53:03.964Z,100816.19
2022-12-19T11:55:28.727Z,100812.00
2022-12-19T11:57:56.411Z,100807.47
2022-12-19T12:00:25.813Z,100812.56
2022-12-19T12:03:19.709Z,100806.56
2022-12-19T12:05:48.239Z,100808.47
2022-12-19T12:09:30.346Z,100795.38
2022-12-19T12:14:38.219Z,100780.31
2022-12-19T12:25:36.719Z,100797.84
2022-12-19T12:31:00.904Z,100787.81
2022-12-19T12:31:28.411Z,100776.38
2022-12-19T12:31:46.924Z,100770.09
2022-12-19T12:32:03.003Z,100786.06
2022-12-19T12:35:09.653Z,100772.28
2022-12-19T12:35:33.636Z,100772.00
2022-12-19T12:36:58.767Z,100766.00
2022-12-19T12:38:24.670Z,100787.28
2022-12-19T12:41:03.081Z,100775.34
2022-12-19T12:43:45.820Z,100779.69
2022-12-19T12:46:16.023Z,100764.69
2022-12-19T12:48:46.948Z,100776.84
2022-12-19T12:51:16.148Z,100782.59
2022-12-19T12:53:46.263Z,100782.63
2022-12-19T12:56:17.873Z,100773.19
2022-12-19T12:59:05.323Z,100780.59
2022-12-19T13:01:37.452Z,100761.81
2022-12-19T13:04:08.673Z,100743.25
2022-12-19T13:06:40.064Z,100784.47
2022-12-19T13:09:21.801Z,100772.56
2022-12-19T13:12:08.917Z,100777.09
2022-12-19T13:14:45.447Z,100760.81
2022-12-19T13:17:14.260Z,100775.94
2022-12-19T13:19:54.992Z,100768.19
2022-12-19T13:22:39.031Z,100772.00
2022-12-19T13:25:40.135Z,100770.41
2022-12-19T13:28:17.177Z,100767.53
2022-12-19T13:31:21.000Z,100742.66
2022-12-19T13:34:15.457Z,100750.53
2022-12-19T13:39:59.624Z,100755.50
2022-12-19T13:40:08.815Z,100746.81
2022-12-19T13:42:59.434Z,100739.69
2022-12-19T13:45:40.017Z,100739.69
2022-12-19T13:48:14.327Z,100745.59
2022-12-19T13:50:42.743Z,100728.31
2022-12-19T13:53:12.339Z,100738.88
2022-12-19T13:55:41.880Z,100740.66
2022-12-19T13:58:22.259Z,100753.09
2022-12-19T14:00:59.716Z,100739.00
2022-12-19T14:03:34.996Z,100744.03
2022-12-19T14:06:17.160Z,100737.63
2022-12-19T14:08:47.747Z,100735.81
2022-12-19T14:13:42.571Z,100731.94
2022-12-19T14:14:47.056Z,100710.81
2022-12-19T14:17:16.521Z,100735.69
2022-12-19T14:19:45.602Z,100706.19
2022-12-19T14:22:22.678Z,100698.63
2022-12-19T14:25:50.190Z,100692.38
2022-12-19T14:28:26.823Z,100696.22
2022-12-19T14:30:39.196Z,100685.78
2022-12-19T14:33:40.034Z,100691.38
2022-12-19T14:36:07.384Z,100709.31
2022-12-19T14:39:23.728Z,100694.69
2022-12-19T14:42:00.960Z,100696.69
2022-12-19T14:53:33.987Z,100691.41
2022-12-19T14:54:13.501Z,100681.34
2022-12-19T14:54:16.867Z,100686.03
2022-12-19T14:54:20.957Z,100681.69
2022-12-19T14:58:57.848Z,100696.28
2022-12-19T15:01:29.008Z,100704.00
2022-12-19T15:04:00.334Z,100673.72
2022-12-19T15:07:09.060Z,100683.88
2022-12-19T15:11:05.454Z,100680.03
2022-12-19T15:14:53.425Z,100679.28
2022-12-19T15:15:45.616Z,100683.44
2022-12-19T15:18:22.337Z,100679.69
2022-12-19T15:20:50.226Z,100668.09
2022-12-19T15:23:21.993Z,100664.59
2022-12-19T15:26:06.926Z,100665.59
2022-12-19T15:28:41.180Z,100663.31
2022-12-19T15:31:18.323Z,100671.69
2022-12-19T15:34:14.907Z,100653.81
2022-12-19T15:36:35.151Z,100669.88
2022-12-19T15:39:03.788Z,100678.63
2022-12-19T15:41:31.829Z,100677.44
2022-12-19T15:44:04.473Z,100677.44
2022-12-19T15:46:33.694Z,100669.28
2022-12-19T15:49:03.040Z,100689.44
2022-12-19T15:51:30.800Z,100692.09
2022-12-19T15:54:15.608Z,100701.41
2022-12-19T15:56:48.524Z,100698.84
2022-12-19T15:59:31.202Z,100699.03
2022-12-19T16:02:05.371Z,100698.88
2022-12-19T16:04:35.011Z,100673.13
2022-12-19T16:07:11.087Z,100685.56
2022-12-19T16:09:38.768Z,100695.25
2022-12-19T16:12:06.661Z,100709.44
2022-12-19T16:14:34.359Z,100705.66
2022-12-19T16:17:02.133Z,100722.50
2022-12-19T16:19:31.180Z,100722.38
2022-12-19T16:22:00.821Z,100725.69
2022-12-19T16:24:28.462Z,100719.31
2022-12-19T16:26:58.047Z,100720.50
2022-12-19T16:29:28.652Z,100731.03
2022-12-19T16:31:56.906Z,100713.13
2022-12-19T16:34:25.505Z,100715.06
2022-12-19T16:36:54.283Z,100720.13
2022-12-19T16:39:23.455Z,100693.81
2022-12-19T16:41:52.303Z,100690.88
2022-12-19T16:44:21.973Z,100671.94
2022-12-19T16:46:51.639Z,100672.84
2022-12-19T16:49:22.950Z,100666.59
2022-12-19T16:51:51.126Z,100664.28
2022-12-19T16:54:20.071Z,100678.81
2022-12-19T16:56:50.625Z,100675.59
2022-12-19T16:59:20.845Z,100659.19
2022-12-19T17:01:49.259Z,100670.31
2022-12-19T17:04:18.464Z,100688.25
2022-12-19T17:06:46.435Z,100697.44
2022-12-19T17:09:16.547Z,100697.19
2022-12-19T17:11:46.536Z,100689.88
2022-12-19T17:14:18.574Z,100689.19
2022-12-19T17:16:46.428Z,100694.22
2022-12-19T17:19:19.201Z,100697.69
2022-12-19T17:21:46.922Z,100685.13
2022-12-19T17:24:15.690Z,100683.34
2022-12-19T17:26:43.748Z,100672.44
2022-12-19T17:29:11.804Z,100678.31
2022-12-19T17:31:41.700Z,100674.56
2022-12-19T17:34:15.562Z,100690.69
2022-12-19T17:36:43.303Z,100680.03
2022-12-19T17:39:19.440Z,100680.88
2022-12-19T17:41:47.466Z,100669.31
2022-12-19T17:44:15.266Z,100667.88
2022-12-19T17:46:44.591Z,100667.03
2022-12-19T17:49:17.583Z,100672.91
2022-12-19T17:51:50.095Z,100666.72
2022-12-19T17:54:17.807Z,100663.56
2022-12-19T17:56:45.739Z,100669.28
2022-12-19T17:59:13.567Z,100680.50
2022-12-19T18:01:42.371Z,100683.84
2022-12-19T18:04:15.208Z,100670.59
2022-12-19T18:06:43.162Z,100671.91
2022-12-19T18:09:18.700Z,100675.53
2022-12-19T18:11:46.597Z,100686.63
2022-12-19T18:14:14.331Z,100691.03
2022-12-19T18:16:42.440Z,100691.59
2022-12-19T18:19:17.315Z,100698.47
2022-12-19T18:21:45.063Z,100700.78
2022-12-19T18:24:14.317Z,100684.38
2022-12-19T18:26:42.067Z,100691.41
2022-12-19T18:29:09.913Z,100688.34
2022-12-19T18:31:37.751Z,100683.25
2022-12-19T18:34:08.173Z,100675.13
2022-12-19T18:36:41.209Z,100698.81
2022-12-19T18:39:20.382Z,100682.38
2022-12-19T18:41:48.509Z,100695.66
2022-12-19T18:44:16.264Z,100686.53
2022-12-19T18:46:44.298Z,100675.22
2022-12-19T18:49:13.366Z,100681.72
2022-12-19T18:51:42.978Z,100668.84
2022-12-19T18:54:14.032Z,100690.03
2022-12-19T18:56:41.825Z,100681.84
2022-12-19T18:59:11.012Z,100680.81
2022-12-19T19:01:41.957Z,100676.41
2022-12-19T19:04:13.054Z,100677.06
2022-12-19T19:06:50.038Z,100677.88
2022-12-19T19:09:19.135Z,100687.06
2022-12-19T19:11:46.789Z,100682.69
2022-12-19T19:14:14.592Z,100672.72
2022-12-19T19:16:42.460Z,100699.66
2022-12-19T19:19:12.738Z,100699.88
2022-12-19T19:21:42.645Z,100699.72
2022-12-19T19:24:14.107Z,100688.97
2022-12-19T19:26:41.758Z,100684.22
2022-12-19T19:29:10.693Z,100682.47
2022-12-19T19:31:39.996Z,100686.44
2022-12-19T19:34:11.846Z,100694.69
2022-12-19T19:36:42.981Z,100683.06
2022-12-19T19:39:11.479Z,100688.25
2022-12-19T19:41:39.152Z,100685.38
2022-12-19T19:44:06.811Z,100702.72
2022-12-19T19:46:34.608Z,100708.84
2022-12-19T19:49:02.373Z,100693.72
2022-12-19T19:51:30.108Z,100710.59
2022-12-19T19:53:59.510Z,100713.72
2022-12-19T19:56:27.177Z,100708.56
2022-12-19T19:58:57.591Z,100709.25
2022-12-19T20:01:25.383Z,100693.78
2022-12-19T20:03:53.354Z,100709.31
2022-12-19T20:06:21.107Z,100708.75
2022-12-19T20:08:49.301Z,100714.34
2022-12-19T20:11:18.519Z,100725.34
2022-12-19T20:13:46.175Z,100725.75
2022-12-19T20:16:16.701Z,100714.88
2022-12-19T20:18:48.270Z,100718.59
2022-12-19T20:21:16.157Z,100693.44
2022-12-19T20:23:44.348Z,100719.72
2022-12-19T20:26:13.123Z,100717.56
2022-12-19T20:28:48.349Z,100719.72
2022-12-19T20:31:16.992Z,100727.34
2022-12-19T20:33:45.127Z,100734.97
2022-12-19T20:36:14.123Z,100725.78
2022-12-19T20:38:42.181Z,100726.53
2022-12-19T20:41:10.428Z,100706.53
2022-12-19T20:43:38.835Z,100718.28
2022-12-19T20:46:09.644Z,100713.44
2022-12-19T20:48:37.619Z,100717.38
2022-12-19T20:51:05.713Z,100709.19
2022-12-19T20:53:34.096Z,100713.31
2022-12-19T20:56:03.050Z,100715.03
2022-12-19T20:58:31.894Z,100720.63
2022-12-19T21:01:06.360Z,100716.06
2022-12-19T21:03:36.294Z,100710.44
2022-12-19T21:06:04.700Z,100698.19
2022-12-19T21:08:32.743Z,100712.41
2022-12-19T21:11:01.499Z,100711.06
2022-12-19T21:13:29.187Z,100719.63
2022-12-19T21:15:58.531Z,100709.25
2022-12-19T21:18:27.107Z,100701.13
2022-12-19T21:20:56.283Z,100713.66
2022-12-19T21:23:25.327Z,100708.91
2022-12-19T21:25:53.348Z,100701.44
2022-12-19T21:28:21.398Z,100712.13
2022-12-19T21:30:56.546Z,100698.03
2022-12-19T21:33:24.409Z,100709.28
2022-12-19T21:35:52.139Z,100704.84
2022-12-19T21:38:21.568Z,100709.78
2022-12-19T21:40:49.390Z,100702.47
2022-12-19T21:43:17.281Z,100716.06
2022-12-19T21:45:45.024Z,100723.28
2022-12-19T21:48:12.691Z,100694.09
2022-12-19T21:50:40.354Z,100701.34
2022-12-19T21:53:08.052Z,100703.78
2022-12-19T21:55:37.191Z,100699.19
2022-12-19T21:58:04.898Z,100702.22
2022-12-19T22:00:32.728Z,100710.06
2022-12-19T22:03:16.197Z,100717.75
2022-12-19T22:05:44.002Z,100712.34
2022-12-19T22:08:11.919Z,100703.56
2022-12-19T22:10:41.039Z,100679.66
2022-12-19T22:13:08.743Z,100665.47
2022-12-19T22:15:36.880Z,100681.94
2022-12-19T22:18:04.752Z,100678.31
2022-12-19T22:20:32.453Z,100686.63
2022-12-19T22:23:00.206Z,100659.28
2022-12-19T22:25:27.926Z,100678.53
2022-12-19T22:27:57.646Z,100663.81
2022-12-19T22:30:25.396Z,100681.69
2022-12-19T22:32:53.132Z,100667.72
2022-12-19T22:35:20.862Z,100674.63
2022-12-19T22:37:48.603Z,100681.00
2022-12-19T22:40:16.681Z,100661.78
2022-12-19T22:42:44.333Z,100681.72
2022-12-19T22:45:13.942Z,100691.03
2022-12-19T22:47:42.549Z,100689.91
2022-12-19T22:50:11.451Z,100681.16
2022-12-19T22:52:39.303Z,100695.66
2022-12-19T22:55:08.004Z,100696.69
2022-12-19T22:57:35.679Z,100682.75
2022-12-19T23:00:03.643Z,100678.19
2022-12-19T23:02:32.840Z,100689.72
2022-12-19T23:05:00.690Z,100687.63
2022-12-19T23:07:28.459Z,100682.16
2022-12-19T23:09:56.233Z,100679.72
2022-12-19T23:12:23.947Z,100680.34
2022-12-19T23:14:51.609Z,100670.69
2022-12-19T23:17:19.312Z,100653.50
2022-12-19T23:19:48.346Z,100672.53
2022-12-19T23:22:15.967Z,100681.09
2022-12-19T23:24:44.767Z,100674.84
2022-12-19T23:27:12.447Z,100669.16
2022-12-19T23:29:40.152Z,100654.31
2022-12-19T23:32:07.882Z,100666.91
2022-12-19T23:34:37.325Z,100658.03
2022-12-19T23:37:11.218Z,100661.84
2022-12-19T23:39:39.773Z,100649.50
2022-12-19T23:42:07.499Z,100646.34
2022-12-19T23:44:35.285Z,100646.72
2022-12-19T23:47:04.144Z,100648.84
2022-12-19T23:49:32.529Z,100643.66
2022-12-19T23:52:00.284Z,100645.59
2022-12-19T23:54:29.459Z,100649.59
2022-12-19T23:56:57.181Z,100638.03
2022-12-19T23:59:24.874Z,100643.16
